sensor_id;sensor_type;location;lat;lon;timestamp;P1;durP1;ratioP1;P2;durP2;ratioP2
32214;SDS011;18708;53.124;23.190;2024-01-06T00:02:15;64.03;;;30.70;;
32214;SDS011;18708;53.124;23.190;2024-01-06T00:04:41;60.22;;;29.70;;
32214;SDS011;18708;53.124;23.190;2024-01-06T00:07:06;62.33;;;32.72;;
32214;SDS011;18708;53.124;23.190;2024-01-06T00:09:32;66.50;;;33.70;;
32214;SDS011;18708;53.124;23.190;2024-01-06T00:11:58;85.85;;;39.47;;
32214;SDS011;18708;53.124;23.190;2024-01-06T00:14:23;86.63;;;43.00;;
32214;SDS011;18708;53.124;23.190;2024-01-06T00:16:49;108.40;;;47.95;;
32214;SDS011;18708;53.124;23.190;2024-01-06T00:19:15;124.18;;;54.28;;
32214;SDS011;18708;53.124;23.190;2024-01-06T00:21:42;125.45;;;50.78;;
32214;SDS011;18708;53.124;23.190;2024-01-06T00:24:08;141.13;;;54.40;;
32214;SDS011;18708;53.124;23.190;2024-01-06T00:26:34;139.18;;;57.42;;
32214;SDS011;18708;53.124;23.190;2024-01-06T00:28:59;127.40;;;57.10;;
32214;SDS011;18708;53.124;23.190;2024-01-06T00:31:25;124.97;;;55.15;;
32214;SDS011;18708;53.124;23.190;2024-01-06T00:33:51;109.00;;;47.55;;
32214;SDS011;18708;53.124;23.190;2024-01-06T00:36:16;104.45;;;44.88;;
32214;SDS011;18708;53.124;23.190;2024-01-06T00:38:42;107.72;;;46.17;;
32214;SDS011;18708;53.124;23.190;2024-01-06T00:41:08;102.07;;;43.60;;
32214;SDS011;18708;53.124;23.190;2024-01-06T00:43:33;111.13;;;47.53;;
32214;SDS011;18708;53.124;23.190;2024-01-06T00:45:59;103.45;;;47.63;;
32214;SDS011;18708;53.124;23.190;2024-01-06T00:48:25;108.15;;;47.13;;
32214;SDS011;18708;53.124;23.190;2024-01-06T00:50:50;110.63;;;48.60;;
32214;SDS011;18708;53.124;23.190;2024-01-06T00:53:16;129.18;;;54.55;;
32214;SDS011;18708;53.124;23.190;2024-01-06T00:55:42;145.25;;;63.95;;
32214;SDS011;18708;53.124;23.190;2024-01-06T00:58:07;122.63;;;54.88;;
32214;SDS011;18708;53.124;23.190;2024-01-06T01:00:33;109.68;;;49.80;;
32214;SDS011;18708;53.124;23.190;2024-01-06T01:02:59;98.15;;;46.05;;
32214;SDS011;18708;53.124;23.190;2024-01-06T01:05:25;117.88;;;47.60;;
32214;SDS011;18708;53.124;23.190;2024-01-06T01:07:50;125.45;;;50.92;;
32214;SDS011;18708;53.124;23.190;2024-01-06T01:10:16;114.38;;;50.47;;
32214;SDS011;18708;53.124;23.190;2024-01-06T01:12:42;115.40;;;49.30;;
32214;SDS011;18708;53.124;23.190;2024-01-06T01:15:07;92.93;;;42.60;;
32214;SDS011;18708;53.124;23.190;2024-01-06T01:17:33;101.32;;;41.90;;
32214;SDS011;18708;53.124;23.190;2024-01-06T01:19:59;98.78;;;41.13;;
32214;SDS011;18708;53.124;23.190;2024-01-06T01:22:25;93.85;;;41.08;;
32214;SDS011;18708;53.124;23.190;2024-01-06T01:24:50;87.88;;;41.65;;
32214;SDS011;18708;53.124;23.190;2024-01-06T01:27:16;94.28;;;41.05;;
32214;SDS011;18708;53.124;23.190;2024-01-06T01:29:42;91.00;;;40.28;;
32214;SDS011;18708;53.124;23.190;2024-01-06T01:32:07;87.63;;;38.22;;
32214;SDS011;18708;53.124;23.190;2024-01-06T01:34:33;88.50;;;39.10;;
32214;SDS011;18708;53.124;23.190;2024-01-06T01:36:59;84.82;;;39.85;;
32214;SDS011;18708;53.124;23.190;2024-01-06T01:39:25;81.90;;;38.15;;
32214;SDS011;18708;53.124;23.190;2024-01-06T01:41:51;85.18;;;38.97;;
32214;SDS011;18708;53.124;23.190;2024-01-06T01:44:16;92.65;;;41.60;;
32214;SDS011;18708;53.124;23.190;2024-01-06T01:46:42;87.85;;;40.88;;
32214;SDS011;18708;53.124;23.190;2024-01-06T01:49:08;90.28;;;39.65;;
32214;SDS011;18708;53.124;23.190;2024-01-06T01:51:34;94.65;;;40.47;;
32214;SDS011;18708;53.124;23.190;2024-01-06T01:54:03;88.38;;;39.78;;
32214;SDS011;18708;53.124;23.190;2024-01-06T01:56:33;81.13;;;38.97;;
32214;SDS011;18708;53.124;23.190;2024-01-06T01:59:01;80.50;;;38.70;;
32214;SDS011;18708;53.124;23.190;2024-01-06T02:01:31;82.88;;;38.80;;
32214;SDS011;18708;53.124;23.190;2024-01-06T02:03:57;81.05;;;37.17;;
32214;SDS011;18708;53.124;23.190;2024-01-06T02:06:23;86.88;;;40.13;;
32214;SDS011;18708;53.124;23.190;2024-01-06T02:08:49;95.00;;;41.00;;
32214;SDS011;18708;53.124;23.190;2024-01-06T02:11:14;89.55;;;40.45;;
32214;SDS011;18708;53.124;23.190;2024-01-06T02:13:40;91.82;;;44.30;;
32214;SDS011;18708;53.124;23.190;2024-01-06T02:16:06;107.57;;;44.55;;
32214;SDS011;18708;53.124;23.190;2024-01-06T02:18:32;98.45;;;43.65;;
32214;SDS011;18708;53.124;23.190;2024-01-06T02:20:58;98.38;;;40.17;;
32214;SDS011;18708;53.124;23.190;2024-01-06T02:23:25;90.40;;;42.00;;
32214;SDS011;18708;53.124;23.190;2024-01-06T02:25:51;90.53;;;39.75;;
32214;SDS011;18708;53.124;23.190;2024-01-06T02:28:17;102.13;;;43.05;;
32214;SDS011;18708;53.124;23.190;2024-01-06T02:30:43;101.45;;;42.95;;
32214;SDS011;18708;53.124;23.190;2024-01-06T02:33:09;102.22;;;44.42;;
32214;SDS011;18708;53.124;23.190;2024-01-06T02:35:35;94.88;;;41.88;;
32214;SDS011;18708;53.124;23.190;2024-01-06T02:38:02;100.13;;;42.63;;
32214;SDS011;18708;53.124;23.190;2024-01-06T02:40:28;93.10;;;43.05;;
32214;SDS011;18708;53.124;23.190;2024-01-06T02:42:54;97.97;;;41.08;;
32214;SDS011;18708;53.124;23.190;2024-01-06T02:45:20;94.55;;;38.92;;
32214;SDS011;18708;53.124;23.190;2024-01-06T02:47:45;93.63;;;40.55;;
32214;SDS011;18708;53.124;23.190;2024-01-06T02:50:11;77.47;;;33.83;;
32214;SDS011;18708;53.124;23.190;2024-01-06T02:52:37;80.47;;;35.08;;
32214;SDS011;18708;53.124;23.190;2024-01-06T02:55:02;81.18;;;35.03;;
32214;SDS011;18708;53.124;23.190;2024-01-06T02:57:29;79.65;;;33.80;;
32214;SDS011;18708;53.124;23.190;2024-01-06T02:59:55;75.57;;;34.10;;
32214;SDS011;18708;53.124;23.190;2024-01-06T03:02:21;46.13;;;23.95;;
32214;SDS011;18708;53.124;23.190;2024-01-06T03:04:46;58.42;;;26.17;;
32214;SDS011;18708;53.124;23.190;2024-01-06T03:07:12;48.22;;;23.50;;
32214;SDS011;18708;53.124;23.190;2024-01-06T03:09:38;57.92;;;26.65;;
32214;SDS011;18708;53.124;23.190;2024-01-06T03:12:06;51.50;;;23.50;;
32214;SDS011;18708;53.124;23.190;2024-01-06T03:14:35;55.83;;;25.98;;
32214;SDS011;18708;53.124;23.190;2024-01-06T03:17:01;49.33;;;24.08;;
32214;SDS011;18708;53.124;23.190;2024-01-06T03:19:28;62.58;;;27.52;;
32214;SDS011;18708;53.124;23.190;2024-01-06T03:21:54;67.65;;;31.10;;
32214;SDS011;18708;53.124;23.190;2024-01-06T03:24:20;67.90;;;30.45;;
32214;SDS011;18708;53.124;23.190;2024-01-06T03:26:46;55.85;;;27.77;;
32214;SDS011;18708;53.124;23.190;2024-01-06T03:29:12;50.03;;;25.35;;
32214;SDS011;18708;53.124;23.190;2024-01-06T03:31:41;53.72;;;24.17;;
32214;SDS011;18708;53.124;23.190;2024-01-06T03:34:10;47.53;;;25.25;;
32214;SDS011;18708;53.124;23.190;2024-01-06T03:36:36;47.95;;;23.55;;
32214;SDS011;18708;53.124;23.190;2024-01-06T03:39:02;53.65;;;26.05;;
32214;SDS011;18708;53.124;23.190;2024-01-06T03:41:28;61.78;;;24.20;;
32214;SDS011;18708;53.124;23.190;2024-01-06T03:43:54;48.70;;;23.42;;
32214;SDS011;18708;53.124;23.190;2024-01-06T03:46:20;46.85;;;23.30;;
32214;SDS011;18708;53.124;23.190;2024-01-06T03:48:46;49.97;;;24.33;;
32214;SDS011;18708;53.124;23.190;2024-01-06T03:51:11;48.75;;;24.75;;
32214;SDS011;18708;53.124;23.190;2024-01-06T03:53:38;53.50;;;25.48;;
32214;SDS011;18708;53.124;23.190;2024-01-06T03:56:05;74.50;;;31.67;;
32214;SDS011;18708;53.124;23.190;2024-01-06T03:58:31;97.78;;;39.72;;
32214;SDS011;18708;53.124;23.190;2024-01-06T04:00:57;98.30;;;39.95;;
32214;SDS011;18708;53.124;23.190;2024-01-06T04:03:22;82.82;;;33.25;;
32214;SDS011;18708;53.124;23.190;2024-01-06T04:05:48;88.18;;;37.10;;
32214;SDS011;18708;53.124;23.190;2024-01-06T04:08:14;108.82;;;43.50;;
32214;SDS011;18708;53.124;23.190;2024-01-06T04:10:39;110.90;;;46.20;;
32214;SDS011;18708;53.124;23.190;2024-01-06T04:13:06;108.97;;;44.83;;
32214;SDS011;18708;53.124;23.190;2024-01-06T04:15:32;102.88;;;43.80;;
32214;SDS011;18708;53.124;23.190;2024-01-06T04:18:01;89.82;;;38.58;;
32214;SDS011;18708;53.124;23.190;2024-01-06T04:20:28;75.57;;;34.58;;
32214;SDS011;18708;53.124;23.190;2024-01-06T04:22:53;71.30;;;32.75;;
32214;SDS011;18708;53.124;23.190;2024-01-06T04:25:19;75.13;;;32.75;;
32214;SDS011;18708;53.124;23.190;2024-01-06T04:27:46;87.30;;;40.83;;
32214;SDS011;18708;53.124;23.190;2024-01-06T04:30:13;97.30;;;41.72;;
32214;SDS011;18708;53.124;23.190;2024-01-06T04:32:39;90.25;;;38.33;;
32214;SDS011;18708;53.124;23.190;2024-01-06T04:35:05;81.22;;;35.05;;
32214;SDS011;18708;53.124;23.190;2024-01-06T04:37:32;73.18;;;32.60;;
32214;SDS011;18708;53.124;23.190;2024-01-06T04:39:57;83.40;;;35.22;;
32214;SDS011;18708;53.124;23.190;2024-01-06T04:42:23;76.57;;;34.17;;
32214;SDS011;18708;53.124;23.190;2024-01-06T04:44:49;60.15;;;30.27;;
32214;SDS011;18708;53.124;23.190;2024-01-06T04:47:15;74.55;;;32.88;;
32214;SDS011;18708;53.124;23.190;2024-01-06T04:49:41;69.15;;;32.63;;
32214;SDS011;18708;53.124;23.190;2024-01-06T04:52:07;71.68;;;31.13;;
32214;SDS011;18708;53.124;23.190;2024-01-06T04:54:33;68.68;;;30.77;;
32214;SDS011;18708;53.124;23.190;2024-01-06T04:56:58;58.55;;;27.65;;
32214;SDS011;18708;53.124;23.190;2024-01-06T04:59:24;70.32;;;33.03;;
32214;SDS011;18708;53.124;23.190;2024-01-06T05:01:50;68.82;;;33.92;;
32214;SDS011;18708;53.124;23.190;2024-01-06T05:04:17;74.50;;;33.15;;
32214;SDS011;18708;53.124;23.190;2024-01-06T05:06:43;68.32;;;31.17;;
32214;SDS011;18708;53.124;23.190;2024-01-06T05:09:09;69.85;;;30.90;;
32214;SDS011;18708;53.124;23.190;2024-01-06T05:11:34;68.88;;;31.40;;
32214;SDS011;18708;53.124;23.190;2024-01-06T05:14:00;62.65;;;30.60;;
32214;SDS011;18708;53.124;23.190;2024-01-06T05:16:26;64.97;;;30.52;;
32214;SDS011;18708;53.124;23.190;2024-01-06T05:18:52;57.30;;;28.52;;
32214;SDS011;18708;53.124;23.190;2024-01-06T05:21:18;59.55;;;29.00;;
32214;SDS011;18708;53.124;23.190;2024-01-06T05:23:44;57.63;;;29.75;;
32214;SDS011;18708;53.124;23.190;2024-01-06T05:26:10;60.70;;;28.00;;
32214;SDS011;18708;53.124;23.190;2024-01-06T05:28:37;54.90;;;28.33;;
32214;SDS011;18708;53.124;23.190;2024-01-06T05:31:02;60.03;;;28.73;;
32214;SDS011;18708;53.124;23.190;2024-01-06T05:33:28;58.42;;;27.73;;
32214;SDS011;18708;53.124;23.190;2024-01-06T05:35:54;61.05;;;28.23;;
32214;SDS011;18708;53.124;23.190;2024-01-06T05:38:19;60.33;;;28.13;;
32214;SDS011;18708;53.124;23.190;2024-01-06T05:40:45;57.03;;;28.80;;
32214;SDS011;18708;53.124;23.190;2024-01-06T05:43:11;68.75;;;31.52;;
32214;SDS011;18708;53.124;23.190;2024-01-06T05:45:36;73.00;;;33.80;;
32214;SDS011;18708;53.124;23.190;2024-01-06T05:48:03;74.43;;;34.92;;
32214;SDS011;18708;53.124;23.190;2024-01-06T05:50:29;78.78;;;35.75;;
32214;SDS011;18708;53.124;23.190;2024-01-06T05:52:55;68.18;;;31.10;;
32214;SDS011;18708;53.124;23.190;2024-01-06T05:55:21;61.05;;;31.90;;
32214;SDS011;18708;53.124;23.190;2024-01-06T05:57:47;70.45;;;32.38;;
32214;SDS011;18708;53.124;23.190;2024-01-06T06:00:13;71.50;;;33.45;;
32214;SDS011;18708;53.124;23.190;2024-01-06T06:02:39;71.82;;;33.97;;
32214;SDS011;18708;53.124;23.190;2024-01-06T06:05:05;65.30;;;31.70;;
32214;SDS011;18708;53.124;23.190;2024-01-06T06:07:31;64.63;;;32.65;;
32214;SDS011;18708;53.124;23.190;2024-01-06T06:09:56;64.45;;;31.65;;
32214;SDS011;18708;53.124;23.190;2024-01-06T06:12:22;65.85;;;31.42;;
32214;SDS011;18708;53.124;23.190;2024-01-06T06:14:48;67.45;;;31.92;;
32214;SDS011;18708;53.124;23.190;2024-01-06T06:17:13;60.03;;;29.00;;
32214;SDS011;18708;53.124;23.190;2024-01-06T06:19:39;68.85;;;34.90;;
32214;SDS011;18708;53.124;23.190;2024-01-06T06:22:04;67.30;;;33.42;;
32214;SDS011;18708;53.124;23.190;2024-01-06T06:24:31;63.95;;;33.08;;
32214;SDS011;18708;53.124;23.190;2024-01-06T06:26:57;71.60;;;33.60;;
32214;SDS011;18708;53.124;23.190;2024-01-06T06:29:22;77.57;;;36.78;;
32214;SDS011;18708;53.124;23.190;2024-01-06T06:31:49;75.30;;;35.35;;
32214;SDS011;18708;53.124;23.190;2024-01-06T06:34:14;72.82;;;34.30;;
32214;SDS011;18708;53.124;23.190;2024-01-06T06:36:40;75.72;;;33.97;;
32214;SDS011;18708;53.124;23.190;2024-01-06T06:39:06;74.78;;;34.78;;
32214;SDS011;18708;53.124;23.190;2024-01-06T06:41:32;73.25;;;33.85;;
32214;SDS011;18708;53.124;23.190;2024-01-06T06:43:58;73.65;;;35.40;;
32214;SDS011;18708;53.124;23.190;2024-01-06T06:46:24;74.93;;;34.08;;
32214;SDS011;18708;53.124;23.190;2024-01-06T06:48:50;67.35;;;32.45;;
32214;SDS011;18708;53.124;23.190;2024-01-06T06:51:16;74.63;;;31.83;;
32214;SDS011;18708;53.124;23.190;2024-01-06T06:53:41;67.35;;;32.13;;
32214;SDS011;18708;53.124;23.190;2024-01-06T06:56:07;69.40;;;30.80;;
32214;SDS011;18708;53.124;23.190;2024-01-06T06:58:33;66.60;;;29.95;;
32214;SDS011;18708;53.124;23.190;2024-01-06T07:00:58;79.93;;;37.15;;
32214;SDS011;18708;53.124;23.190;2024-01-06T07:03:24;62.55;;;31.48;;
32214;SDS011;18708;53.124;23.190;2024-01-06T07:05:51;70.68;;;34.45;;
32214;SDS011;18708;53.124;23.190;2024-01-06T07:08:17;57.90;;;27.33;;
32214;SDS011;18708;53.124;23.190;2024-01-06T07:10:43;64.75;;;30.00;;
32214;SDS011;18708;53.124;23.190;2024-01-06T07:13:08;58.40;;;27.75;;
32214;SDS011;18708;53.124;23.190;2024-01-06T07:15:34;71.00;;;33.47;;
32214;SDS011;18708;53.124;23.190;2024-01-06T07:18:00;87.38;;;37.65;;
32214;SDS011;18708;53.124;23.190;2024-01-06T07:20:25;69.72;;;31.92;;
32214;SDS011;18708;53.124;23.190;2024-01-06T07:22:51;61.30;;;27.48;;
32214;SDS011;18708;53.124;23.190;2024-01-06T07:25:17;63.83;;;29.63;;
32214;SDS011;18708;53.124;23.190;2024-01-06T07:27:42;49.90;;;21.65;;
32214;SDS011;18708;53.124;23.190;2024-01-06T07:30:08;42.17;;;20.42;;
32214;SDS011;18708;53.124;23.190;2024-01-06T07:32:34;39.50;;;20.08;;
32214;SDS011;18708;53.124;23.190;2024-01-06T07:35:00;44.47;;;22.85;;
32214;SDS011;18708;53.124;23.190;2024-01-06T07:37:27;43.65;;;23.98;;
32214;SDS011;18708;53.124;23.190;2024-01-06T07:39:52;48.08;;;23.55;;
32214;SDS011;18708;53.124;23.190;2024-01-06T07:42:18;47.08;;;23.75;;
32214;SDS011;18708;53.124;23.190;2024-01-06T07:44:44;48.10;;;23.42;;
32214;SDS011;18708;53.124;23.190;2024-01-06T07:47:10;46.42;;;23.10;;
32214;SDS011;18708;53.124;23.190;2024-01-06T07:49:35;46.85;;;23.80;;
32214;SDS011;18708;53.124;23.190;2024-01-06T07:52:01;45.55;;;23.75;;
32214;SDS011;18708;53.124;23.190;2024-01-06T07:54:27;54.30;;;25.23;;
32214;SDS011;18708;53.124;23.190;2024-01-06T07:56:54;54.25;;;25.45;;
32214;SDS011;18708;53.124;23.190;2024-01-06T07:59:20;54.47;;;26.02;;
32214;SDS011;18708;53.124;23.190;2024-01-06T08:01:46;55.97;;;26.60;;
32214;SDS011;18708;53.124;23.190;2024-01-06T08:04:11;57.83;;;28.20;;
32214;SDS011;18708;53.124;23.190;2024-01-06T08:06:37;63.75;;;28.55;;
32214;SDS011;18708;53.124;23.190;2024-01-06T08:09:03;62.60;;;31.15;;
32214;SDS011;18708;53.124;23.190;2024-01-06T08:11:28;74.88;;;34.47;;
32214;SDS011;18708;53.124;23.190;2024-01-06T08:13:54;86.28;;;40.95;;
32214;SDS011;18708;53.124;23.190;2024-01-06T08:16:20;73.95;;;38.33;;
32214;SDS011;18708;53.124;23.190;2024-01-06T08:18:46;70.75;;;35.10;;
32214;SDS011;18708;53.124;23.190;2024-01-06T08:21:12;78.88;;;34.92;;
32214;SDS011;18708;53.124;23.190;2024-01-06T08:23:37;75.15;;;32.67;;
32214;SDS011;18708;53.124;23.190;2024-01-06T08:26:03;67.80;;;33.40;;
32214;SDS011;18708;53.124;23.190;2024-01-06T08:28:30;69.10;;;34.08;;
32214;SDS011;18708;53.124;23.190;2024-01-06T08:30:56;80.00;;;36.92;;
32214;SDS011;18708;53.124;23.190;2024-01-06T08:33:21;81.00;;;38.53;;
32214;SDS011;18708;53.124;23.190;2024-01-06T08:35:47;80.20;;;37.22;;
32214;SDS011;18708;53.124;23.190;2024-01-06T08:38:13;75.93;;;37.72;;
32214;SDS011;18708;53.124;23.190;2024-01-06T08:40:39;82.35;;;37.97;;
32214;SDS011;18708;53.124;23.190;2024-01-06T08:43:05;74.35;;;36.28;;
32214;SDS011;18708;53.124;23.190;2024-01-06T08:45:31;75.05;;;36.63;;
32214;SDS011;18708;53.124;23.190;2024-01-06T08:47:56;84.93;;;42.42;;
32214;SDS011;18708;53.124;23.190;2024-01-06T08:50:22;87.20;;;39.90;;
32214;SDS011;18708;53.124;23.190;2024-01-06T08:52:48;94.55;;;45.13;;
32214;SDS011;18708;53.124;23.190;2024-01-06T08:55:13;93.90;;;43.10;;
32214;SDS011;18708;53.124;23.190;2024-01-06T08:57:41;94.20;;;43.08;;
32214;SDS011;18708;53.124;23.190;2024-01-06T09:00:07;79.38;;;39.67;;
32214;SDS011;18708;53.124;23.190;2024-01-06T09:02:34;90.75;;;41.38;;
32214;SDS011;18708;53.124;23.190;2024-01-06T09:05:00;77.25;;;38.28;;
32214;SDS011;18708;53.124;23.190;2024-01-06T09:07:25;80.20;;;40.55;;
32214;SDS011;18708;53.124;23.190;2024-01-06T09:09:51;78.20;;;38.63;;
32214;SDS011;18708;53.124;23.190;2024-01-06T09:12:16;84.53;;;41.22;;
32214;SDS011;18708;53.124;23.190;2024-01-06T09:14:42;74.43;;;39.22;;
32214;SDS011;18708;53.124;23.190;2024-01-06T09:17:08;83.35;;;44.50;;
32214;SDS011;18708;53.124;23.190;2024-01-06T09:19:33;85.53;;;43.08;;
32214;SDS011;18708;53.124;23.190;2024-01-06T09:22:00;88.95;;;45.15;;
32214;SDS011;18708;53.124;23.190;2024-01-06T09:24:25;85.22;;;45.00;;
32214;SDS011;18708;53.124;23.190;2024-01-06T09:26:51;85.22;;;42.85;;
32214;SDS011;18708;53.124;23.190;2024-01-06T09:29:16;86.35;;;43.22;;
32214;SDS011;18708;53.124;23.190;2024-01-06T09:31:42;81.85;;;41.85;;
32214;SDS011;18708;53.124;23.190;2024-01-06T09:34:11;85.18;;;43.67;;
32214;SDS011;18708;53.124;23.190;2024-01-06T09:36:37;89.10;;;43.03;;
32214;SDS011;18708;53.124;23.190;2024-01-06T09:39:03;92.13;;;46.10;;
32214;SDS011;18708;53.124;23.190;2024-01-06T09:41:29;108.18;;;51.42;;
32214;SDS011;18708;53.124;23.190;2024-01-06T09:43:56;101.32;;;49.30;;
32214;SDS011;18708;53.124;23.190;2024-01-06T09:46:25;100.35;;;51.10;;
32214;SDS011;18708;53.124;23.190;2024-01-06T09:48:51;117.85;;;60.47;;
32214;SDS011;18708;53.124;23.190;2024-01-06T09:51:20;101.03;;;53.13;;
32214;SDS011;18708;53.124;23.190;2024-01-06T09:54:00;101.28;;;53.15;;
32214;SDS011;18708;53.124;23.190;2024-01-06T09:56:27;101.35;;;54.00;;
32214;SDS011;18708;53.124;23.190;2024-01-06T09:58:54;102.40;;;52.00;;
32214;SDS011;18708;53.124;23.190;2024-01-06T10:01:21;104.57;;;54.53;;
32214;SDS011;18708;53.124;23.190;2024-01-06T10:03:47;85.38;;;48.78;;
32214;SDS011;18708;53.124;23.190;2024-01-06T10:06:13;89.38;;;48.60;;
32214;SDS011;18708;53.124;23.190;2024-01-06T10:08:42;93.82;;;49.72;;
32214;SDS011;18708;53.124;23.190;2024-01-06T10:11:08;150.68;;;66.43;;
32214;SDS011;18708;53.124;23.190;2024-01-06T10:13:35;224.18;;;91.60;;
32214;SDS011;18708;53.124;23.190;2024-01-06T10:16:05;149.38;;;70.60;;
32214;SDS011;18708;53.124;23.190;2024-01-06T10:18:31;147.35;;;67.60;;
32214;SDS011;18708;53.124;23.190;2024-01-06T10:20:57;135.90;;;66.18;;
32214;SDS011;18708;53.124;23.190;2024-01-06T10:23:23;136.57;;;73.07;;
32214;SDS011;18708;53.124;23.190;2024-01-06T10:25:54;123.97;;;69.05;;
32214;SDS011;18708;53.124;23.190;2024-01-06T10:28:21;136.13;;;73.32;;
32214;SDS011;18708;53.124;23.190;2024-01-06T10:30:53;204.98;;;108.47;;
32214;SDS011;18708;53.124;23.190;2024-01-06T10:33:20;173.35;;;96.10;;
32214;SDS011;18708;53.124;23.190;2024-01-06T10:35:46;177.48;;;95.00;;
32214;SDS011;18708;53.124;23.190;2024-01-06T10:38:12;217.60;;;107.65;;
32214;SDS011;18708;53.124;23.190;2024-01-06T10:40:45;196.07;;;105.00;;
32214;SDS011;18708;53.124;23.190;2024-01-06T10:43:22;156.98;;;85.40;;
32214;SDS011;18708;53.124;23.190;2024-01-06T10:45:50;141.23;;;76.65;;
32214;SDS011;18708;53.124;23.190;2024-01-06T10:48:19;135.13;;;72.18;;
32214;SDS011;18708;53.124;23.190;2024-01-06T10:50:45;151.52;;;83.97;;
32214;SDS011;18708;53.124;23.190;2024-01-06T10:53:13;139.73;;;74.63;;
32214;SDS011;18708;53.124;23.190;2024-01-06T10:55:42;133.70;;;74.28;;
32214;SDS011;18708;53.124;23.190;2024-01-06T10:58:08;121.88;;;69.47;;
32214;SDS011;18708;53.124;23.190;2024-01-06T11:00:37;115.03;;;62.95;;
32214;SDS011;18708;53.124;23.190;2024-01-06T11:03:04;187.10;;;104.00;;
32214;SDS011;18708;53.124;23.190;2024-01-06T11:05:31;135.80;;;64.78;;
32214;SDS011;18708;53.124;23.190;2024-01-06T11:07:58;162.55;;;68.65;;
32214;SDS011;18708;53.124;23.190;2024-01-06T11:10:26;144.45;;;61.80;;
32214;SDS011;18708;53.124;23.190;2024-01-06T11:13:10;138.90;;;62.50;;
32214;SDS011;18708;53.124;23.190;2024-01-06T11:15:42;116.55;;;51.50;;
32214;SDS011;18708;53.124;23.190;2024-01-06T11:18:09;131.55;;;50.97;;
32214;SDS011;18708;53.124;23.190;2024-01-06T11:26:45;129.00;;;46.38;;
32214;SDS011;18708;53.124;23.190;2024-01-06T11:29:14;53.90;;;25.23;;
32214;SDS011;18708;53.124;23.190;2024-01-06T11:31:40;43.38;;;20.98;;
32214;SDS011;18708;53.124;23.190;2024-01-06T11:34:15;25.67;;;14.07;;
32214;SDS011;18708;53.124;23.190;2024-01-06T11:36:45;22.38;;;10.13;;
32214;SDS011;18708;53.124;23.190;2024-01-06T11:39:33;17.90;;;9.32;;
32214;SDS011;18708;53.124;23.190;2024-01-06T11:42:01;15.00;;;9.63;;
32214;SDS011;18708;53.124;23.190;2024-01-06T11:44:28;16.35;;;10.18;;
32214;SDS011;18708;53.124;23.190;2024-01-06T11:46:56;15.32;;;9.82;;
32214;SDS011;18708;53.124;23.190;2024-01-06T11:49:23;16.38;;;9.80;;
32214;SDS011;18708;53.124;23.190;2024-01-06T11:51:58;17.38;;;10.02;;
32214;SDS011;18708;53.124;23.190;2024-01-06T11:54:24;20.35;;;11.32;;
32214;SDS011;18708;53.124;23.190;2024-01-06T11:56:49;33.03;;;18.05;;
32214;SDS011;18708;53.124;23.190;2024-01-06T11:59:18;27.00;;;15.75;;
32214;SDS011;18708;53.124;23.190;2024-01-06T12:01:45;35.15;;;19.27;;
32214;SDS011;18708;53.124;23.190;2024-01-06T12:04:13;35.50;;;19.63;;
32214;SDS011;18708;53.124;23.190;2024-01-06T12:06:40;42.72;;;22.60;;
32214;SDS011;18708;53.124;23.190;2024-01-06T12:09:07;36.40;;;21.02;;
32214;SDS011;18708;53.124;23.190;2024-01-06T12:11:35;39.00;;;21.40;;
32214;SDS011;18708;53.124;23.190;2024-01-06T12:14:02;32.60;;;18.90;;
32214;SDS011;18708;53.124;23.190;2024-01-06T12:16:28;35.10;;;18.75;;
32214;SDS011;18708;53.124;23.190;2024-01-06T12:18:54;31.60;;;17.02;;
32214;SDS011;18708;53.124;23.190;2024-01-06T12:21:23;24.23;;;15.05;;
32214;SDS011;18708;53.124;23.190;2024-01-06T12:23:49;21.58;;;13.13;;
32214;SDS011;18708;53.124;23.190;2024-01-06T12:26:16;23.30;;;12.55;;
32214;SDS011;18708;53.124;23.190;2024-01-06T12:28:46;18.42;;;10.95;;
32214;SDS011;18708;53.124;23.190;2024-01-06T12:31:13;22.92;;;12.65;;
32214;SDS011;18708;53.124;23.190;2024-01-06T12:33:40;18.77;;;13.00;;
32214;SDS011;18708;53.124;23.190;2024-01-06T12:36:08;13.10;;;8.43;;
32214;SDS011;18708;53.124;23.190;2024-01-06T12:38:39;16.15;;;9.48;;
32214;SDS011;18708;53.124;23.190;2024-01-06T12:41:07;15.88;;;10.10;;
32214;SDS011;18708;53.124;23.190;2024-01-06T12:43:33;18.88;;;10.90;;
32214;SDS011;18708;53.124;23.190;2024-01-06T12:45:58;21.05;;;11.35;;
32214;SDS011;18708;53.124;23.190;2024-01-06T12:48:26;17.45;;;10.52;;
32214;SDS011;18708;53.124;23.190;2024-01-06T12:50:51;19.00;;;11.27;;
32214;SDS011;18708;53.124;23.190;2024-01-06T12:53:18;19.27;;;11.27;;
32214;SDS011;18708;53.124;23.190;2024-01-06T12:55:44;20.33;;;10.85;;
32214;SDS011;18708;53.124;23.190;2024-01-06T12:58:10;18.95;;;10.27;;
32214;SDS011;18708;53.124;23.190;2024-01-06T13:00:36;20.90;;;10.80;;
32214;SDS011;18708;53.124;23.190;2024-01-06T13:03:02;19.27;;;10.48;;
32214;SDS011;18708;53.124;23.190;2024-01-06T13:05:29;24.50;;;13.88;;
32214;SDS011;18708;53.124;23.190;2024-01-06T13:07:55;59.35;;;29.45;;
32214;SDS011;18708;53.124;23.190;2024-01-06T13:10:22;31.15;;;16.15;;
32214;SDS011;18708;53.124;23.190;2024-01-06T13:12:48;27.52;;;14.98;;
32214;SDS011;18708;53.124;23.190;2024-01-06T13:15:13;27.92;;;15.15;;
32214;SDS011;18708;53.124;23.190;2024-01-06T13:17:39;24.58;;;13.20;;
32214;SDS011;18708;53.124;23.190;2024-01-06T13:20:05;27.08;;;14.40;;
32214;SDS011;18708;53.124;23.190;2024-01-06T13:22:32;64.45;;;35.05;;
32214;SDS011;18708;53.124;23.190;2024-01-06T13:24:58;39.78;;;23.17;;
32214;SDS011;18708;53.124;23.190;2024-01-06T13:27:24;36.20;;;19.85;;
32214;SDS011;18708;53.124;23.190;2024-01-06T13:29:52;37.53;;;19.08;;
32214;SDS011;18708;53.124;23.190;2024-01-06T13:32:18;41.75;;;19.83;;
32214;SDS011;18708;53.124;23.190;2024-01-06T13:34:45;37.50;;;18.50;;
32214;SDS011;18708;53.124;23.190;2024-01-06T13:37:11;34.13;;;16.10;;
32214;SDS011;18708;53.124;23.190;2024-01-06T13:39:36;29.42;;;13.38;;
32214;SDS011;18708;53.124;23.190;2024-01-06T13:42:02;39.72;;;20.88;;
32214;SDS011;18708;53.124;23.190;2024-01-06T13:44:28;30.60;;;14.85;;
32214;SDS011;18708;53.124;23.190;2024-01-06T13:46:54;33.53;;;15.50;;
32214;SDS011;18708;53.124;23.190;2024-01-06T13:49:21;30.83;;;16.02;;
32214;SDS011;18708;53.124;23.190;2024-01-06T13:51:47;37.38;;;19.48;;
32214;SDS011;18708;53.124;23.190;2024-01-06T13:54:13;45.20;;;25.30;;
32214;SDS011;18708;53.124;23.190;2024-01-06T13:56:39;48.03;;;23.52;;
32214;SDS011;18708;53.124;23.190;2024-01-06T13:59:05;32.83;;;16.90;;
32214;SDS011;18708;53.124;23.190;2024-01-06T14:01:31;31.30;;;16.60;;
32214;SDS011;18708;53.124;23.190;2024-01-06T14:03:57;32.65;;;15.50;;
32214;SDS011;18708;53.124;23.190;2024-01-06T14:06:26;26.58;;;13.23;;
32214;SDS011;18708;53.124;23.190;2024-01-06T14:08:55;28.50;;;13.48;;